Time;durP1;ratioP1;P1;durP2;ratioP2;P2;SDS_P1;SDS_P2;PMS_P1;PMS_P2;Temp;Humidity;BMP_temperature;BMP_pressure;BME280_temperature;BME280_humidity;BME280_pressure;Samples;Min_cycle;Max_cycle;Signal;HPM_P1;HPM_P2
2023/08/11 00:02:24;;;;;;;7.88;3.80;;;13.50;99.90;;;;;;5036636;28;20028;-79
2023/08/11 00:04:50;;;;;;;5.18;3.65;;;13.40;99.90;;;;;;5036553;28;20022;-79
2023/08/11 00:07:16;;;;;;;5.72;4.38;;;13.40;99.90;;;;;;5035531;28;20823;-79
2023/08/11 00:09:42;;;;;;;5.28;3.80;;;13.30;99.90;;;;;;5036606;28;20147;-79
2023/08/11 00:12:07;;;;;;;6.50;4.57;;;13.30;99.90;;;;;;5039488;28;20037;-79
2023/08/11 00:14:33;;;;;;;6.45;3.40;;;13.30;99.90;;;;;;5039872;28;20158;-79
2023/08/11 00:16:59;;;;;;;8.60;4.10;;;13.30;99.90;;;;;;5039451;28;20147;-78
2023/08/11 00:19:25;;;;;;;5.32;3.80;;;13.30;99.90;;;;;;5039489;28;20025;-79
2023/08/11 00:21:51;;;;;;;7.88;3.90;;;13.30;99.90;;;;;;5040422;28;20112;-79
2023/08/11 00:24:16;;;;;;;9.07;4.03;;;13.20;99.90;;;;;;5039848;28;20163;-79
2023/08/11 00:26:42;;;;;;;6.82;4.15;;;13.20;99.90;;;;;;5037128;28;20051;-79
2023/08/11 00:29:07;;;;;;;7.00;4.18;;;13.20;99.90;;;;;;5037459;28;20053;-78
2023/08/11 00:31:33;;;;;;;8.65;3.67;;;13.20;99.90;;;;;;5038017;28;20034;-78
2023/08/11 00:33:58;;;;;;;6.10;4.38;;;13.20;99.90;;;;;;5038191;28;20032;-78
2023/08/11 00:36:24;;;;;;;6.30;4.32;;;13.10;99.90;;;;;;5037568;28;20040;-79
2023/08/11 00:38:50;;;;;;;8.98;4.00;;;13.10;99.90;;;;;;5038614;28;20080;-78
2023/08/11 00:41:16;;;;;;;6.55;4.03;;;13.10;99.90;;;;;;5038083;28;20036;-80
2023/08/11 00:43:42;;;;;;;7.32;4.07;;;13.00;99.90;;;;;;5038128;28;20021;-78
2023/08/11 00:46:11;;;;;;;6.75;4.10;;;13.00;99.90;;;;;;5037926;28;20169;-79
2023/08/11 00:48:41;;;;;;;6.25;3.63;;;13.00;99.90;;;;;;5035890;28;20037;-79
2023/08/11 00:51:09;;;;;;;6.18;4.13;;;12.90;99.90;;;;;;5037095;28;20162;-78
2023/08/11 00:53:36;;;;;;;8.65;4.13;;;12.90;99.90;;;;;;5036115;28;20028;-78
2023/08/11 00:56:03;;;;;;;6.32;3.72;;;12.80;99.90;;;;;;5035951;28;20029;-78
2023/08/11 00:58:30;;;;;;;6.63;3.97;;;12.80;99.90;;;;;;5035941;28;20032;-79
2023/08/11 01:00:57;;;;;;;6.63;3.80;;;12.70;99.90;;;;;;5036779;28;20174;-79
2023/08/11 01:03:23;;;;;;;6.07;4.10;;;12.70;99.90;;;;;;5037005;28;20033;-79
2023/08/11 01:05:59;;;;;;;6.70;4.22;;;12.60;99.90;;;;;;5036401;28;20049;-78
2023/08/11 01:08:34;;;;;;;8.43;4.07;;;12.60;99.90;;;;;;5035993;28;20045;-78
2023/08/11 01:11:17;;;;;;;6.95;3.85;;;12.60;99.90;;;;;;5036453;28;20036;-78
2023/08/11 01:13:48;;;;;;;5.28;3.78;;;12.60;99.90;;;;;;5036618;28;20028;-79
2023/08/11 01:16:15;;;;;;;5.97;4.20;;;12.60;99.90;;;;;;5034795;28;20036;-79
2023/08/11 01:18:42;;;;;;;5.05;3.85;;;12.60;99.90;;;;;;5034933;28;20025;-78
2023/08/11 01:21:11;;;;;;;8.43;3.92;;;12.60;99.90;;;;;;5036595;28;20058;-78
2023/08/11 01:23:37;;;;;;;8.40;4.10;;;12.60;99.90;;;;;;5036075;28;20923;-78
2023/08/11 01:26:03;;;;;;;8.32;4.00;;;12.50;99.90;;;;;;5034615;28;20166;-78
2023/08/11 01:28:29;;;;;;;5.75;3.47;;;12.50;99.90;;;;;;5034671;28;20151;-78
2023/08/11 01:30:54;;;;;;;6.22;3.95;;;12.50;99.90;;;;;;5036241;28;20116;-78
2023/08/11 01:33:20;;;;;;;9.95;4.50;;;12.50;99.90;;;;;;5035438;28;20032;-78
2023/08/11 01:35:46;;;;;;;5.55;4.00;;;12.50;99.90;;;;;;5035766;28;20040;-79
2023/08/11 01:38:12;;;;;;;6.20;4.28;;;12.50;99.90;;;;;;5036316;28;20031;-78
2023/08/11 01:40:39;;;;;;;7.60;4.07;;;12.50;99.90;;;;;;5036821;28;20107;-79
2023/08/11 01:43:07;;;;;;;7.20;3.63;;;12.50;99.90;;;;;;5037146;28;20058;-78
2023/08/11 01:45:33;;;;;;;7.45;3.85;;;12.40;99.90;;;;;;5035809;28;20052;-78
2023/08/11 01:48:00;;;;;;;5.40;3.90;;;12.40;99.90;;;;;;5036980;28;20025;-79
2023/08/11 01:50:27;;;;;;;8.25;4.63;;;12.40;99.90;;;;;;5034837;28;20144;-78
2023/08/11 01:52:54;;;;;;;6.80;3.88;;;12.40;99.90;;;;;;5036119;28;20042;-78
2023/08/11 01:55:20;;;;;;;5.10;3.92;;;12.40;99.90;;;;;;5036682;28;20025;-78
2023/08/11 01:57:46;;;;;;;7.65;4.25;;;12.40;99.90;;;;;;5035772;28;20029;-79
2023/08/11 02:00:16;;;;;;;6.72;4.10;;;12.40;99.90;;;;;;5036290;28;20156;-79
2023/08/11 02:02:44;;;;;;;5.93;3.50;;;12.30;99.90;;;;;;5036293;28;20037;-77
2023/08/11 02:05:11;;;;;;;6.57;3.88;;;12.30;99.90;;;;;;5036091;28;20036;-78
2023/08/11 02:07:38;;;;;;;8.02;4.43;;;12.30;99.90;;;;;;5035374;28;20064;-79
2023/08/11 02:10:03;;;;;;;7.25;3.72;;;12.20;99.90;;;;;;5034259;28;20029;-79
2023/08/11 02:12:30;;;;;;;6.25;3.88;;;12.20;99.90;;;;;;5035881;28;20151;-78
2023/08/11 02:14:55;;;;;;;5.55;3.20;;;12.20;99.90;;;;;;5036167;28;20035;-78
2023/08/11 02:17:21;;;;;;;7.18;3.72;;;12.20;99.90;;;;;;5034454;28;20033;-78
2023/08/11 02:19:46;;;;;;;7.80;3.92;;;12.20;99.90;;;;;;5035129;28;20059;-78
2023/08/11 02:22:13;;;;;;;6.60;3.80;;;12.20;99.90;;;;;;5035059;28;20029;-78
2023/08/11 02:24:38;;;;;;;8.60;4.05;;;12.20;99.90;;;;;;5034938;28;20116;-79
2023/08/11 02:27:04;;;;;;;5.50;4.03;;;12.10;99.90;;;;;;5035236;28;20858;-78
2023/08/11 02:29:29;;;;;;;8.73;4.65;;;12.10;99.90;;;;;;5034474;28;20034;-78
2023/08/11 02:31:55;;;;;;;8.30;4.00;;;12.10;99.90;;;;;;5035074;28;20033;-78
2023/08/11 02:34:20;;;;;;;7.30;4.18;;;12.10;99.90;;;;;;5035360;28;20487;-78
2023/08/11 02:36:47;;;;;;;12.80;4.20;;;12.10;99.90;;;;;;5034648;28;20037;-79
2023/08/11 02:39:12;;;;;;;8.50;4.50;;;12.10;99.90;;;;;;5034444;28;20037;-79
2023/08/11 02:41:38;;;;;;;5.35;3.90;;;12.10;99.90;;;;;;5035450;28;20037;-79
2023/08/11 02:44:04;;;;;;;11.30;4.05;;;12.10;99.90;;;;;;5035921;28;20029;-79
2023/08/11 02:46:31;;;;;;;4.90;3.70;;;12.00;99.90;;;;;;5034829;28;20029;-79
2023/08/11 02:48:56;;;;;;;7.28;3.97;;;12.00;99.90;;;;;;5032819;28;20143;-78
2023/08/11 02:51:22;;;;;;;9.68;3.90;;;12.00;99.90;;;;;;5034566;28;20041;-79
2023/08/11 02:53:48;;;;;;;6.40;3.60;;;12.00;99.90;;;;;;5034523;28;21480;-79
2023/08/11 02:56:15;;;;;;;7.10;3.30;;;11.90;99.90;;;;;;5034080;28;20606;-79
2023/08/11 02:58:43;;;;;;;8.10;4.03;;;11.90;99.90;;;;;;5034193;28;21322;-79
2023/08/11 03:01:09;;;;;;;8.40;3.85;;;11.90;99.90;;;;;;5035260;28;20036;-79
2023/08/11 03:03:35;;;;;;;14.77;4.38;;;11.90;99.90;;;;;;5035174;28;20389;-78
2023/08/11 03:06:00;;;;;;;7.35;4.07;;;11.80;99.90;;;;;;5033630;28;20527;-78
2023/08/11 03:08:27;;;;;;;4.95;3.70;;;11.80;99.90;;;;;;5034303;28;20039;-78
2023/08/11 03:10:53;;;;;;;4.53;3.80;;;11.80;99.90;;;;;;5033949;28;20025;-78
2023/08/11 03:13:19;;;;;;;6.88;3.70;;;11.70;99.90;;;;;;5033941;28;20029;-78
2023/08/11 03:15:44;;;;;;;4.90;3.88;;;11.70;99.90;;;;;;5034506;28;20029;-79
2023/08/11 03:18:10;;;;;;;9.45;4.50;;;11.70;99.90;;;;;;5033482;28;20043;-78
2023/08/11 03:20:36;;;;;;;5.47;3.40;;;11.70;99.90;;;;;;5033331;28;20081;-78
2023/08/11 03:23:04;;;;;;;6.75;3.88;;;11.70;99.90;;;;;;5032942;28;21320;-78
2023/08/11 03:25:30;;;;;;;5.50;3.53;;;11.60;99.90;;;;;;5033660;28;20119;-78
2023/08/11 03:27:56;;;;;;;8.38;4.82;;;11.60;99.90;;;;;;5033634;28;20108;-78
2023/08/11 03:30:22;;;;;;;5.80;3.53;;;11.50;99.90;;;;;;5034726;28;20053;-78
2023/08/11 03:32:48;;;;;;;7.28;4.20;;;11.50;99.90;;;;;;5033276;28;20116;-78
2023/08/11 03:35:14;;;;;;;8.95;3.90;;;11.50;99.90;;;;;;5034704;28;20029;-78
2023/08/11 03:37:39;;;;;;;10.32;3.78;;;11.50;99.90;;;;;;5033156;28;20030;-78
2023/08/11 03:40:12;;;;;;;6.32;3.63;;;11.50;99.90;;;;;;5032155;28;20039;-78
2023/08/11 03:42:39;;;;;;;7.07;4.05;;;11.40;99.90;;;;;;5034033;28;20021;-78
2023/08/11 03:45:05;;;;;;;9.20;3.78;;;11.40;99.90;;;;;;5031679;28;20024;-78
2023/08/11 03:47:31;;;;;;;7.47;3.90;;;11.40;99.90;;;;;;5033472;28;20026;-78
2023/08/11 03:49:56;;;;;;;9.43;4.18;;;11.40;99.90;;;;;;5032455;28;20139;-79
2023/08/11 03:52:22;;;;;;;8.25;3.80;;;11.40;99.90;;;;;;5032988;28;20044;-78
2023/08/11 03:54:48;;;;;;;8.50;4.27;;;11.30;99.90;;;;;;5033680;28;20029;-78
2023/08/11 03:57:13;;;;;;;5.03;3.63;;;11.30;99.90;;;;;;5032233;28;20427;-79
2023/08/11 03:59:39;;;;;;;8.00;3.50;;;11.30;99.90;;;;;;5031448;28;20029;-78
2023/08/11 04:02:04;;;;;;;5.95;4.05;;;11.30;99.90;;;;;;5032721;28;20583;-78
2023/08/11 04:04:30;;;;;;;7.70;4.07;;;11.30;99.90;;;;;;5032147;28;20428;-79
2023/08/11 04:06:56;;;;;;;7.25;4.45;;;11.30;99.90;;;;;;5031490;28;20049;-78
2023/08/11 04:09:21;;;;;;;5.80;4.00;;;11.30;99.90;;;;;;5033105;28;20064;-78
2023/08/11 04:11:47;;;;;;;5.82;4.22;;;11.30;99.90;;;;;;5033324;28;20052;-78
2023/08/11 04:14:14;;;;;;;10.35;4.13;;;11.30;99.90;;;;;;5033756;28;20033;-85
2023/08/11 04:16:39;;;;;;;11.30;5.68;;;11.40;99.90;;;;;;5029955;28;21779;-77
2023/08/11 04:19:05;;;;;;;6.53;4.68;;;11.30;99.90;;;;;;5029312;28;20034;-77
2023/08/11 04:21:30;;;;;;;8.45;4.30;;;11.30;99.90;;;;;;5031255;28;20033;-78
2023/08/11 04:23:56;;;;;;;7.93;4.38;;;11.40;99.90;;;;;;5030397;28;20017;-77
2023/08/11 04:26:21;;;;;;;6.72;4.50;;;11.40;99.90;;;;;;5028637;28;20048;-78
2023/08/11 04:28:47;;;;;;;6.63;4.50;;;11.50;99.90;;;;;;5028679;28;20041;-78
2023/08/11 04:31:13;;;;;;;6.80;4.28;;;11.40;99.90;;;;;;5029924;28;20026;-77
2023/08/11 04:33:39;;;;;;;9.02;4.38;;;11.50;99.90;;;;;;5028765;28;20030;-78
2023/08/11 04:36:05;;;;;;;7.60;4.15;;;11.50;99.90;;;;;;5029605;28;20079;-78
2023/08/11 04:38:30;;;;;;;8.18;4.78;;;11.50;99.90;;;;;;5029585;28;20531;-78
2023/08/11 04:40:57;;;;;;;5.72;3.65;;;11.50;99.90;;;;;;5030272;28;20025;-78
2023/08/11 04:43:23;;;;;;;13.20;4.00;;;11.60;99.90;;;;;;5030097;28;20480;-78
2023/08/11 04:45:49;;;;;;;7.53;4.10;;;11.50;99.90;;;;;;5029563;28;20033;-78
2023/08/11 04:48:15;;;;;;;6.53;4.10;;;11.60;99.90;;;;;;5028822;28;20056;-77
2023/08/11 04:50:40;;;;;;;5.80;3.88;;;11.60;99.90;;;;;;5028866;28;20073;-78
2023/08/11 04:53:06;;;;;;;6.68;3.88;;;11.70;99.90;;;;;;5029231;28;20065;-78
2023/08/11 04:55:32;;;;;;;8.82;4.13;;;11.70;99.90;;;;;;5029373;28;20091;-78
2023/08/11 04:57:57;;;;;;;9.57;4.50;;;11.80;99.90;;;;;;5032482;28;20029;-77
2023/08/11 05:00:23;;;;;;;9.82;4.25;;;11.90;99.90;;;;;;5032435;28;20118;-77
2023/08/11 05:02:51;;;;;;;13.35;4.55;;;11.90;99.90;;;;;;5033029;28;21376;-77
2023/08/11 05:05:19;;;;;;;6.55;4.10;;;12.00;99.90;;;;;;5034223;28;20014;-77
2023/08/11 05:07:45;;;;;;;6.30;3.70;;;12.10;99.90;;;;;;5033502;28;20025;-78
2023/08/11 05:10:10;;;;;;;6.97;4.53;;;12.10;99.90;;;;;;5029327;28;20027;-78
2023/08/11 05:12:36;;;;;;;7.07;4.18;;;12.20;99.90;;;;;;5031099;28;20049;-79
2023/08/11 05:15:03;;;;;;;6.13;3.53;;;12.30;99.90;;;;;;5033776;28;20033;-81
2023/08/11 05:17:29;;;;;;;9.23;4.38;;;12.30;99.90;;;;;;5033759;28;20032;-81
2023/08/11 05:19:55;;;;;;;7.55;4.30;;;12.40;99.90;;;;;;5034945;28;20026;-80
2023/08/11 05:22:21;;;;;;;10.38;4.95;;;12.50;99.90;;;;;;5033793;28;20646;-81
2023/08/11 05:24:46;;;;;;;8.98;4.82;;;12.60;99.90;;;;;;5033492;28;20487;-80
2023/08/11 05:27:14;;;;;;;11.25;4.57;;;12.80;99.90;;;;;;5033456;28;20493;-79
2023/08/11 05:29:39;;;;;;;12.15;5.28;;;12.80;99.90;;;;;;5032928;28;20096;-80
2023/08/11 05:32:05;;;;;;;15.52;6.25;;;13.00;99.90;;;;;;5034287;28;20044;-79
2023/08/11 05:34:31;;;;;;;9.90;5.60;;;13.10;99.90;;;;;;5033036;28;20142;-79
2023/08/11 05:36:57;;;;;;;8.23;4.80;;;13.20;99.90;;;;;;5032713;28;20017;-79
2023/08/11 05:39:23;;;;;;;6.68;4.75;;;13.30;99.90;;;;;;5032383;28;20089;-78
2023/08/11 05:41:48;;;;;;;8.65;4.80;;;13.40;99.90;;;;;;5031686;28;20583;-79
2023/08/11 05:44:14;;;;;;;15.35;4.75;;;13.50;99.90;;;;;;5032423;28;20039;-78
2023/08/11 05:46:39;;;;;;;10.95;4.95;;;13.60;99.90;;;;;;5031754;28;20124;-79
2023/08/11 05:49:05;;;;;;;8.10;4.18;;;13.70;99.90;;;;;;5031173;28;20375;-78
2023/08/11 05:51:30;;;;;;;6.13;3.97;;;13.90;99.90;;;;;;5035151;28;20048;-83
2023/08/11 05:53:56;;;;;;;7.70;4.15;;;14.00;99.90;;;;;;5033599;28;20036;-88
2023/08/11 05:56:22;;;;;;;5.43;3.90;;;14.10;99.90;;;;;;5036695;28;20512;-83
2023/08/11 05:58:47;;;;;;;5.63;3.75;;;14.30;99.90;;;;;;5034952;28;20656;-89
2023/08/11 06:01:13;;;;;;;5.75;4.25;;;14.40;99.90;;;;;;5032052;28;20693;-75
2023/08/11 06:03:38;;;;;;;6.95;4.20;;;14.60;99.90;;;;;;5032152;28;20025;-74
2023/08/11 06:06:04;;;;;;;7.65;4.28;;;14.80;99.90;;;;;;5030821;28;20763;-75
2023/08/11 06:08:30;;;;;;;8.38;4.35;;;14.90;99.90;;;;;;5029305;28;20410;-75
2023/08/11 06:10:56;;;;;;;5.88;4.00;;;15.10;99.90;;;;;;5029988;28;20200;-75
2023/08/11 06:13:23;;;;;;;7.05;4.25;;;15.20;99.90;;;;;;5030689;28;21095;-75
2023/08/11 06:15:49;;;;;;;6.95;3.90;;;15.40;99.90;;;;;;5029071;28;20033;-74
2023/08/11 06:18:15;;;;;;;5.65;4.03;;;15.60;99.90;;;;;;5030544;28;20029;-76
2023/08/11 06:20:41;;;;;;;6.55;3.90;;;15.80;99.90;;;;;;5029165;28;20038;-75
2023/08/11 06:23:07;;;;;;;6.35;3.83;;;16.00;99.90;;;;;;5029193;28;20794;-75
2023/08/11 06:25:33;;;;;;;5.18;3.92;;;16.20;99.90;;;;;;5029199;28;20029;-75
2023/08/11 06:27:58;;;;;;;8.75;4.10;;;16.40;99.90;;;;;;5025997;28;20033;-77
2023/08/11 06:30:24;;;;;;;8.20;3.92;;;16.50;99.90;;;;;;5027387;28;20040;-74
2023/08/11 06:32:49;;;;;;;7.60;3.65;;;16.70;99.90;;;;;;5030020;28;20553;-75
2023/08/11 06:35:15;;;;;;;6.53;3.70;;;16.80;99.90;;;;;;5029382;28;20048;-74
2023/08/11 06:37:40;;;;;;;5.45;4.03;;;17.00;99.90;;;;;;5027682;28;20046;-75
2023/08/11 06:40:07;;;;;;;6.10;3.53;;;17.20;99.90;;;;;;5029868;28;20159;-73
2023/08/11 06:42:33;;;;;;;5.90;3.17;;;17.30;99.90;;;;;;5029503;28;20057;-73
2023/08/11 06:44:59;;;;;;;5.25;3.35;;;17.40;99.90;;;;;;5028750;28;20129;-73
2023/08/11 06:47:25;;;;;;;6.45;3.42;;;17.60;99.90;;;;;;5028313;28;20029;-73
2023/08/11 06:49:50;;;;;;;5.32;3.63;;;17.70;99.90;;;;;;5026400;28;20037;-77
2023/08/11 06:52:16;;;;;;;4.55;3.28;;;17.90;99.90;;;;;;5029958;28;20120;-78
2023/08/11 06:54:41;;;;;;;9.43;3.65;;;18.00;99.90;;;;;;5031232;28;20101;-78
2023/08/11 06:57:07;;;;;;;5.45;3.42;;;18.10;99.90;;;;;;5029276;28;20486;-78
2023/08/11 06:59:32;;;;;;;7.13;3.50;;;18.10;99.90;;;;;;5030233;28;20033;-78
2023/08/11 07:01:58;;;;;;;4.00;3.28;;;18.20;99.90;;;;;;5029882;28;20140;-79
2023/08/11 07:04:24;;;;;;;5.13;3.30;;;18.30;99.90;;;;;;5030612;28;20017;-79
2023/08/11 07:06:49;;;;;;;6.93;2.97;;;18.40;99.90;;;;;;5030647;28;20032;-79
2023/08/11 07:09:16;;;;;;;4.28;3.30;;;18.50;99.90;;;;;;5031251;28;20033;-78
2023/08/11 07:11:41;;;;;;;5.00;3.50;;;18.60;99.90;;;;;;5031582;28;20073;-79
2023/08/11 07:14:07;;;;;;;5.72;3.40;;;18.70;99.90;;;;;;5030939;28;20080;-78
2023/08/11 07:16:32;;;;;;;8.10;3.70;;;18.80;99.90;;;;;;5030884;28;20055;-78
2023/08/11 07:18:58;;;;;;;4.65;3.55;;;18.90;99.90;;;;;;5031275;28;20155;-78
2023/08/11 07:21:23;;;;;;;6.93;3.67;;;19.00;99.90;;;;;;5031621;28;20094;-78
2023/08/11 07:23:49;;;;;;;6.53;3.70;;;19.00;99.90;;;;;;5031159;28;20476;-78
2023/08/11 07:26:14;;;;;;;6.25;3.30;;;19.10;99.90;;;;;;5030848;28;20658;-78
2023/08/11 07:28:40;;;;;;;6.15;3.40;;;19.20;99.90;;;;;;5028976;28;20399;-78
2023/08/11 07:31:06;;;;;;;5.30;3.17;;;19.30;99.90;;;;;;5031863;28;20507;-79
2023/08/11 07:33:32;;;;;;;4.90;3.47;;;19.40;99.90;;;;;;5031571;28;20029;-78
2023/08/11 07:35:57;;;;;;;4.70;3.40;;;19.50;99.90;;;;;;5030013;28;20036;-79
2023/08/11 07:38:23;;;;;;;9.30;3.80;;;19.60;99.90;;;;;;5031756;28;20083;-78
2023/08/11 07:40:48;;;;;;;8.73;3.83;;;19.60;99.90;;;;;;5029921;28;21035;-78
2023/08/11 07:43:14;;;;;;;6.57;3.67;;;19.70;99.90;;;;;;5029705;28;20025;-79
2023/08/11 07:45:40;;;;;;;5.80;3.58;;;19.80;99.90;;;;;;5031361;28;20032;-79
2023/08/11 07:48:06;;;;;;;6.45;3.63;;;19.90;99.90;;;;;;5030264;28;20129;-79
2023/08/11 07:50:34;;;;;;;7.03;3.63;;;20.00;99.90;;;;;;5029673;28;20048;-78
2023/08/11 07:53:00;;;;;;;5.28;3.85;;;20.10;99.90;;;;;;5030028;28;20044;-79
2023/08/11 07:55:25;;;;;;;8.18;3.42;;;20.20;99.90;;;;;;5029798;28;20632;-79
2023/08/11 07:57:51;;;;;;;4.35;3.35;;;20.20;99.90;;;;;;5029219;28;20105;-79
2023/08/11 08:00:19;;;;;;;9.55;3.30;;;20.40;99.90;;;;;;5030295;28;20026;-78
2023/08/11 08:02:44;;;;;;;7.18;3.50;;;20.40;99.90;;;;;;5030010;28;20036;-79
2023/08/11 08:05:11;;;;;;;6.95;3.67;;;20.50;99.90;;;;;;5030041;28;20025;-79
2023/08/11 08:07:37;;;;;;;4.45;3.10;;;20.60;99.90;;;;;;5030953;28;20118;-78
2023/08/11 08:10:08;;;;;;;5.13;3.20;;;20.60;99.90;;;;;;5030439;28;20032;-79
2023/08/11 08:12:36;;;;;;;7.32;3.50;;;20.70;99.90;;;;;;5029454;28;20037;-79
2023/08/11 08:15:02;;;;;;;6.22;2.92;;;20.80;99.90;;;;;;5029867;28;20052;-79
2023/08/11 08:17:28;;;;;;;8.00;3.70;;;20.80;99.90;;;;;;5029280;28;20025;-79
2023/08/11 08:19:54;;;;;;;8.45;3.15;;;20.90;99.90;;;;;;5029701;28;20028;-78
2023/08/11 08:22:19;;;;;;;6.63;3.45;;;21.00;99.90;;;;;;5029227;28;20030;-79
2023/08/11 08:24:45;;;;;;;5.72;3.58;;;21.00;99.90;;;;;;5029515;28;20366;-79
2023/08/11 08:27:11;;;;;;;6.07;3.47;;;21.10;99.90;;;;;;5028788;28;20029;-79
2023/08/11 08:29:36;;;;;;;6.15;3.15;;;21.20;99.90;;;;;;5028661;28;20052;-79
2023/08/11 08:32:02;;;;;;;6.70;3.10;;;21.30;99.90;;;;;;5032141;28;20991;-79
2023/08/11 08:34:27;;;;;;;5.32;2.97;;;21.40;99.90;;;;;;5032750;28;20417;-78
2023/08/11 08:36:53;;;;;;;5.70;3.53;;;21.40;99.90;;;;;;5033914;28;20035;-79
2023/08/11 08:39:19;;;;;;;5.38;3.22;;;21.60;99.90;;;;;;5033662;28;20052;-79
2023/08/11 08:41:46;;;;;;;7.53;3.63;;;21.70;99.90;;;;;;5033336;28;20020;-79
2023/08/11 08:44:12;;;;;;;7.03;3.20;;;21.80;99.90;;;;;;5033662;28;20036;-79
2023/08/11 08:46:39;;;;;;;4.60;3.03;;;21.90;99.90;;;;;;5032383;28;20099;-79
2023/08/11 08:49:24;;;;;;;3.65;3.00;;;22.00;99.90;;;;;;5033023;28;20033;-79
2023/08/11 08:51:51;;;;;;;7.20;3.53;;;22.10;99.90;;;;;;5034109;28;20021;-79
2023/08/11 08:54:16;;;;;;;7.25;3.50;;;22.20;99.90;;;;;;5033552;28;20025;-79
2023/08/11 08:56:42;;;;;;;7.22;2.78;;;22.20;99.90;;;;;;5034234;28;20051;-79
2023/08/11 08:59:08;;;;;;;4.55;2.95;;;22.20;99.90;;;;;;5033266;28;20423;-79
2023/08/11 09:01:35;;;;;;;4.90;3.08;;;22.30;99.90;;;;;;5032998;28;20079;-79
2023/08/11 09:04:02;;;;;;;3.65;2.67;;;22.40;99.90;;;;;;5033814;28;20122;-79
2023/08/11 09:06:28;;;;;;;5.63;3.10;;;22.40;99.90;;;;;;5032503;28;20045;-79
2023/08/11 09:08:54;;;;;;;7.78;2.97;;;22.50;99.90;;;;;;5033517;28;20021;-79
2023/08/11 09:11:21;;;;;;;4.13;3.00;;;22.60;99.90;;;;;;5033612;28;20516;-79
2023/08/11 09:13:47;;;;;;;3.78;2.92;;;22.70;99.90;;;;;;5032975;28;20017;-80
2023/08/11 09:16:14;;;;;;;5.22;2.95;;;22.90;99.90;;;;;;5033666;28;20593;-79
2023/08/11 09:18:40;;;;;;;5.47;2.92;;;23.00;99.90;;;;;;5032812;28;20035;-79
2023/08/11 09:21:06;;;;;;;3.90;2.80;;;23.10;99.90;;;;;;5032970;28;20538;-79
2023/08/11 09:23:36;;;;;;;7.40;3.35;;;23.30;99.90;;;;;;5032729;28;20044;-79
2023/08/11 09:26:02;;;;;;;6.10;3.05;;;23.40;99.90;;;;;;5032928;28;20029;-79
2023/08/11 09:28:27;;;;;;;5.90;3.40;;;23.60;99.90;;;;;;5031711;28;20037;-79
2023/08/11 09:30:54;;;;;;;6.75;3.10;;;23.90;99.90;;;;;;5031448;28;20029;-80
2023/08/11 09:33:24;;;;;;;5.55;3.30;;;24.00;99.90;;;;;;5031792;28;20032;-79
2023/08/11 09:35:50;;;;;;;4.22;3.00;;;24.20;99.90;;;;;;5032504;28;20025;-73
2023/08/11 09:38:15;;;;;;;3.88;2.65;;;24.40;99.90;;;;;;5031329;28;20045;-79
2023/08/11 09:40:41;;;;;;;5.25;3.25;;;24.80;99.90;;;;;;5033562;28;20036;-78
2023/08/11 09:43:09;;;;;;;5.78;2.80;;;25.00;99.90;;;;;;5031898;28;20571;-79
2023/08/11 09:45:34;;;;;;;5.60;2.63;;;25.30;99.90;;;;;;5032521;28;21389;-79
2023/08/11 09:48:00;;;;;;;6.00;2.83;;;25.60;99.90;;;;;;5033302;28;20021;-79
2023/08/11 09:50:28;;;;;;;3.80;2.67;;;25.70;99.90;;;;;;5031859;28;20437;-79
2023/08/11 09:52:55;;;;;;;6.20;3.10;;;25.90;99.90;;;;;;5032203;28;20823;-79
2023/08/11 09:55:21;;;;;;;4.63;2.92;;;26.10;99.90;;;;;;5032936;28;20033;-79
2023/08/11 09:57:48;;;;;;;3.42;2.72;;;26.20;99.90;;;;;;5030934;28;20163;-79
2023/08/11 10:00:14;;;;;;;7.20;2.47;;;26.30;99.90;;;;;;5029910;28;20037;-79
2023/08/11 10:03:00;;;;;;;5.25;2.55;;;26.60;99.90;;;;;;5032318;28;20030;-79
2023/08/11 10:05:29;;;;;;;6.50;2.75;;;26.80;99.90;;;;;;5032616;28;20055;-79
2023/08/11 10:07:56;;;;;;;6.78;3.33;;;26.90;99.90;;;;;;5033176;28;20060;-79
2023/08/11 10:10:22;;;;;;;5.10;2.90;;;27.20;99.90;;;;;;5034582;28;20220;-80
2023/08/11 10:12:55;;;;;;;3.75;2.50;;;27.50;99.90;;;;;;5032990;28;20044;-79
2023/08/11 10:15:22;;;;;;;3.28;2.35;;;27.60;99.90;;;;;;5033316;28;20029;-79
2023/08/11 10:17:48;;;;;;;4.82;2.70;;;27.80;99.90;;;;;;5030513;28;20462;-79
2023/08/11 10:20:15;;;;;;;4.05;2.38;;;27.80;99.90;;;;;;5031532;28;20029;-79
2023/08/11 10:22:41;;;;;;;3.28;2.45;;;27.80;99.90;;;;;;5033668;28;20033;-79
2023/08/11 10:25:08;;;;;;;4.18;2.63;;;27.70;99.90;;;;;;5033425;28;20033;-80
2023/08/11 10:27:36;;;;;;;4.72;2.50;;;27.80;99.90;;;;;;5031873;28;20116;-79
2023/08/11 10:30:05;;;;;;;4.47;2.55;;;27.80;99.90;;;;;;5033360;28;20022;-79
2023/08/11 10:32:34;;;;;;;5.15;2.60;;;27.40;99.90;;;;;;5031619;28;20063;-79
2023/08/11 10:35:00;;;;;;;4.40;2.80;;;27.20;99.90;;;;;;5033262;28;20780;-79
2023/08/11 10:37:31;;;;;;;5.78;2.83;;;27.40;99.90;;;;;;5033527;28;20033;-79
2023/08/11 10:40:09;;;;;;;4.15;2.60;;;27.50;99.90;;;;;;5032444;28;20028;-79
2023/08/11 10:42:40;;;;;;;4.75;3.40;;;27.70;99.90;;;;;;5030435;28;20021;-80
2023/08/11 10:45:13;;;;;;;4.90;2.75;;;27.70;99.90;;;;;;5031438;28;20076;-79
2023/08/11 10:47:50;;;;;;;5.22;3.00;;;27.80;99.90;;;;;;5032099;28;20044;-79
2023/08/11 10:50:17;;;;;;;3.72;2.40;;;28.00;99.90;;;;;;5031465;28;20135;-79
2023/08/11 10:52:42;;;;;;;3.53;2.38;;;28.30;99.90;;;;;;5033696;28;21582;-79
2023/08/11 10:55:09;;;;;;;5.25;2.70;;;28.40;99.90;;;;;;5033543;28;20029;-79
2023/08/11 10:57:35;;;;;;;3.53;2.50;;;28.70;99.90;;;;;;5032437;28;20082;-78
2023/08/11 11:00:01;;;;;;;5.60;2.58;;;28.60;99.90;;;;;;5032020;28;20056;-79
2023/08/11 11:02:29;;;;;;;3.95;2.65;;;28.70;99.90;;;;;;5032089;28;20156;-79
2023/08/11 11:04:55;;;;;;;3.10;2.35;;;28.60;99.90;;;;;;5031305;28;20064;-79
2023/08/11 11:07:24;;;;;;;5.00;2.50;;;28.60;99.90;;;;;;5030830;28;20127;-79
2023/08/11 11:09:51;;;;;;;5.97;2.60;;;28.60;99.90;;;;;;5031706;28;20109;-79
2023/08/11 11:12:17;;;;;;;3.00;2.33;;;28.80;99.90;;;;;;5032151;28;20033;-78
2023/08/11 11:14:43;;;;;;;4.13;2.63;;;29.00;99.90;;;;;;5033120;28;20029;-80
2023/08/11 11:17:08;;;;;;;4.13;2.40;;;29.10;99.90;;;;;;5031874;28;20469;-79
2023/08/11 11:19:35;;;;;;;3.22;2.50;;;29.10;99.90;;;;;;5030601;28;20030;-80
2023/08/11 11:22:01;;;;;;;3.25;2.63;;;29.10;99.90;;;;;;5032131;28;20033;-79
2023/08/11 11:24:27;;;;;;;3.55;2.38;;;28.90;99.90;;;;;;5030734;28;20029;-79
2023/08/11 11:26:53;;;;;;;6.07;3.15;;;29.30;99.90;;;;;;5030993;28;20021;-80
2023/08/11 11:29:23;;;;;;;4.53;2.30;;;29.50;99.90;;;;;;5032043;28;20079;-80
2023/08/11 11:31:50;;;;;;;3.75;2.42;;;29.60;99.90;;;;;;5031115;28;20066;-80
2023/08/11 11:34:17;;;;;;;4.40;2.50;;;29.60;99.90;;;;;;5029144;28;20057;-80
2023/08/11 11:36:44;;;;;;;2.63;1.98;;;29.70;99.90;;;;;;5029852;28;20045;-79
2023/08/11 11:39:10;;;;;;;3.60;2.20;;;29.70;99.90;;;;;;5030321;28;20038;-80
2023/08/11 11:41:36;;;;;;;2.72;2.33;;;29.80;99.90;;;;;;5032381;28;20050;-79
2023/08/11 11:44:02;;;;;;;5.55;2.50;;;29.80;99.90;;;;;;5029983;28;20025;-79
2023/08/11 11:46:32;;;;;;;3.85;2.70;;;29.90;99.90;;;;;;5029308;28;20369;-79
2023/08/11 11:48:58;;;;;;;3.35;2.30;;;29.90;99.90;;;;;;5031891;28;20126;-79
2023/08/11 11:51:25;;;;;;;4.45;2.22;;;30.10;99.90;;;;;;5032419;28;21205;-79
2023/08/11 11:53:53;;;;;;;2.42;2.00;;;30.10;99.90;;;;;;5031490;28;21295;-79
2023/08/11 11:56:19;;;;;;;2.92;2.28;;;30.10;99.90;;;;;;5029673;28;20098;-79
2023/08/11 11:58:48;;;;;;;4.53;2.28;;;30.10;99.90;;;;;;5031096;28;20135;-79
2023/08/11 12:01:24;;;;;;;5.20;2.47;;;30.10;99.90;;;;;;5030810;28;20026;-79
2023/08/11 12:03:50;;;;;;;3.15;2.33;;;30.20;99.90;;;;;;5031949;28;20036;-80
2023/08/11 12:06:20;;;;;;;5.15;2.30;;;30.30;99.90;;;;;;5029546;28;20022;-80
2023/08/11 12:08:50;;;;;;;4.75;2.58;;;30.50;99.90;;;;;;5031099;28;20463;-80
2023/08/11 12:11:26;;;;;;;3.38;2.40;;;30.60;99.90;;;;;;5029931;28;20066;-80
2023/08/11 12:13:52;;;;;;;2.90;2.00;;;30.50;99.90;;;;;;5031970;28;20032;-79
2023/08/11 12:16:17;;;;;;;3.58;2.22;;;30.60;99.90;;;;;;5030944;28;20039;-79
2023/08/11 12:18:43;;;;;;;2.60;2.05;;;31.00;99.90;;;;;;5030709;28;20028;-80
2023/08/11 12:21:09;;;;;;;2.45;1.92;;;31.00;99.90;;;;;;5031653;28;20042;-79
2023/08/11 12:23:35;;;;;;;4.05;2.25;;;30.80;99.90;;;;;;5030831;28;20029;-78
2023/08/11 12:26:01;;;;;;;4.78;2.00;;;30.80;99.90;;;;;;5031067;28;20036;-79
2023/08/11 12:28:27;;;;;;;3.15;1.90;;;30.90;99.90;;;;;;5031704;28;20119;-79
2023/08/11 12:30:53;;;;;;;3.85;2.15;;;31.00;99.90;;;;;;5031084;28;20055;-80
2023/08/11 12:33:19;;;;;;;3.03;2.28;;;31.20;99.90;;;;;;5030282;28;20056;-78
2023/08/11 12:35:46;;;;;;;2.53;2.15;;;30.90;99.90;;;;;;5029874;28;20048;-80
2023/08/11 12:38:12;;;;;;;2.63;2.08;;;30.80;99.90;;;;;;5029441;28;20029;-80
2023/08/11 12:40:40;;;;;;;4.47;2.53;;;30.90;99.90;;;;;;5030159;28;20030;-79
2023/08/11 12:43:06;;;;;;;7.22;2.30;;;31.00;99.90;;;;;;5030635;28;20030;-79